• Join FlightAware (Why Join?)
  • Login
  • US Flag 
01:25AM EDT


 

Airport Tracker/Info


-or-


 

Live Flight TrackerFlight Track Log ✈ AWE3374 ✈ 29-Mar-2014 ✈ KDCA - KMCO

Flight Track Log - Related Links

Times and Time Zones

All times are in EDT time to prevent confusion due to time zone crossing. See the AWE3374 flight status page for this flight to view local times or setup timezone preferences in your user account.

Time Position Orientation Groundspeed Altitude Reporting Facility
EDT Latitude Longitude Course Direction KTS MPH feet Rate Location/Type
05:57PM 38.8833 -77.0500 314° West 161 185 1,400  Level Potomac TRACON
05:58PM 38.9333 -77.1167 314° West 229 264 2,300 1,560 Climbing Potomac TRACON
06:00PM 38.9917 -77.2367 302° West 274 315 5,800 2,100 Climbing Washington Center
06:01PM 38.9328 -77.2781 209° Southwest 184 212 8,300 2,220 Climbing Washington Center
06:02PM 38.8656 -77.3139 203° Southwest 206 237 10,400 1,920 Climbing Washington Center
06:03PM 38.7922 -77.3522 202° Southwest 246 283 12,200 2,160 Climbing Washington Center
06:04PM 38.7164 -77.3931 203° Southwest 282 325 14,800 2,580 Climbing Washington Center
06:05PM 38.6344 -77.4389 204° Southwest 298 343 17,500 2,400 Climbing Washington Center
06:06PM 38.5544 -77.4819 203° Southwest 298 343 19,600 1,920 Climbing Washington Center
06:07PM 38.4767 -77.5250 226° Southwest 303 349 21,300 1,740 Climbing Washington Center
06:08PM 38.3947 -77.5733 205° Southwest 316 364 23,100 1,680 Climbing Washington Center
06:09PM 38.3325 -77.6642 229° Southwest 324 373 24,800 1,500 Climbing Washington Center
06:10PM 38.2725 -77.7578 231° Southwest 331 381 26,200 1,260 Climbing Washington Center
06:11PM 38.2103 -77.8539 231° Southwest 348 400 27,400 1,140 Climbing Washington Center
06:12PM 38.1439 -77.9442 227° Southwest 353 406 28,500 780 Climbing Washington Center
06:13PM 38.0653 -78.0261 219° Southwest 353 406 29,000 240 Climbing Washington Center
06:14PM 37.9928 -78.0922 216° Southwest 363 418 29,000 360 Level Washington Center
06:15PM 37.9161 -78.1714 219° Southwest 363 418 29,800 1,080 Climbing Washington Center
06:16PM 37.8414 -78.2503 220° Southwest 363 418 31,200 1,320 Climbing Washington Center
06:17PM 37.7647 -78.3264 218° Southwest 358 412 32,500 1,140 Climbing Washington Center
06:18PM 37.6900 -78.4025 219° Southwest 358 412 33,500 660 Climbing Washington Center
06:19PM 37.6131 -78.4731 216° Southwest 358 412 33,900 240 Climbing Washington Center
06:20PM 37.5275 -78.5589 219° Southwest 358 412 34,000  Climbing Washington Center
06:21PM 37.4483 -78.6367 218° Southwest 358 412 34,000  Level Washington Center
06:22PM 37.3672 -78.7147 217° Southwest 363 418 34,000  Level Washington Center
06:23PM 37.2858 -78.7922 217° Southwest 368 423 34,000  Level Washington Center
06:24PM 37.2044 -78.8697 217° Southwest 368 423 34,000  Level Washington Center
06:25PM 37.1317 -78.9394 217° Southwest 375 432 34,000  Level Washington Center
06:26PM 37.0500 -79.0217 219° Southwest 375 432 34,000  Level Washington Center
06:27PM 36.9686 -79.0986 217° Southwest 375 432 34,000  Level Washington Center
06:28PM 36.8889 -79.1756 218° Southwest 375 432 34,000  Level Washington Center
06:29PM 36.8094 -79.2525 218° Southwest 375 432 34,000  Level Washington Center
06:30PM 36.7214 -79.3364 217° Southwest 375 432 34,000  Level Washington Center
06:31PM 36.6417 -79.4128 218° Southwest 375 432 34,000  Level Washington Center
06:32PM 36.5117 -79.5339 217° Southwest 371 427 34,000  Level Atlanta Center
06:33PM 36.4369 -79.6053 218° Southwest 371 427 34,000  Level Atlanta Center
06:34PM 36.3564 -79.6794 217° Southwest 371 427 34,000  Level Atlanta Center
06:35PM 36.2756 -79.7583 218° Southwest 371 427 34,000  Level Atlanta Center
06:36PM 36.1947 -79.8322 216° Southwest 376 433 34,000  Level Atlanta Center
06:37PM 36.1078 -79.9111 216° Southwest 371 427 34,000  Level Atlanta Center
06:38PM 36.0267 -79.9822 215° Southwest 371 427 34,000  Level Atlanta Center
06:39PM 35.9322 -80.0278 201° Southwest 366 421 34,000  Level Atlanta Center
06:40PM 35.8400 -80.0786 204° Southwest 366 421 34,000  Level Atlanta Center
06:41PM 35.7558 -80.1211 202° Southwest 366 421 34,000  Level Atlanta Center
06:42PM 35.6533 -80.1744 203° Southwest 366 421 34,000  Level Atlanta Center
06:43PM 35.5567 -80.2225 202° Southwest 371 427 34,000  Level Atlanta Center
06:44PM 35.4642 -80.2675 202° Southwest 371 427 34,000  Level Atlanta Center
06:45PM 35.3697 -80.3153 202° Southwest 371 427 34,000  Level Atlanta Center
06:46PM 35.2753 -80.3628 202° Southwest 371 427 34,000  Level Atlanta Center
06:47PM 35.1806 -80.4100 202° Southwest 371 427 34,000  Level Atlanta Center
06:49PM 35.0089 -80.4950 202° Southwest 365 420 34,000  Level Jacksonville Center
06:50PM 34.9158 -80.5408 202° Southwest 365 420 34,000  Level Jacksonville Center
06:51PM 34.8208 -80.5889 203° Southwest 370 426 34,000  Level Jacksonville Center
06:52PM 34.7342 -80.6342 203° Southwest 364 419 34,000  Level Jacksonville Center
06:53PM 34.6389 -80.6794 201° Southwest 358 412 34,000  Level Jacksonville Center
06:54PM 34.5458 -80.7197 200° South 369 425 34,000  Level Jacksonville Center
06:55PM 34.4486 -80.7750 205° Southwest 369 425 34,000  Level Jacksonville Center
06:56PM 34.3556 -80.8125 198° South 374 430 34,000  Level Jacksonville Center
06:57PM 34.2644 -80.8600 203° Southwest 374 430 34,000  Level Jacksonville Center
06:58PM 34.1714 -80.9047 202° Southwest 367 422 34,000  Level Jacksonville Center
06:59PM 34.0739 -80.9522 202° Southwest 367 422 34,000  Level Jacksonville Center
07:00PM 33.9767 -81.0019 203° Southwest 380 437 34,000  Level Jacksonville Center
07:01PM 33.8731 -81.0442 199° South 380 437 34,000  Level Jacksonville Center
07:02PM 33.7647 -81.0639 189° South 375 432 34,000  Level Jacksonville Center
07:03PM 33.6647 -81.0733 184° South 389 448 34,000  Level Jacksonville Center
07:04PM 33.5542 -81.0831 184° South 403 464 34,000  Level Jacksonville Center
07:05PM 33.4439 -81.0928 184° South 403 464 34,000  Level Jacksonville Center
07:06PM 33.3311 -81.1025 184° South 403 464 34,000  Level Jacksonville Center
07:07PM 33.2206 -81.1097 183° South 403 464 34,000  Level Jacksonville Center
07:08PM 33.1081 -81.1194 184° South 403 464 34,000  Level Jacksonville Center
07:09PM 32.9956 -81.1317 185° South 403 464 34,000  Level Jacksonville Center
07:10PM 32.8831 -81.1411 184° South 403 464 34,000  Level Jacksonville Center
07:11PM 32.7703 -81.1483 183° South 403 464 34,000  Level Jacksonville Center
07:12PM 32.6475 -81.1606 185° South 403 464 34,000  Level Jacksonville Center
07:13PM 32.5347 -81.1700 184° South 414 476 34,000  Level Jacksonville Center
07:14PM 32.4158 -81.1772 183° South 421 484 34,000  Level Jacksonville Center
07:15PM 32.3011 -81.1869 184° South 416 479 34,000  Level Jacksonville Center
07:16PM 32.1864 -81.1964 184° South 416 479 34,000  Level Jacksonville Center
07:17PM 32.0697 -81.1986 181° South 421 484 34,000  Level Jacksonville Center
07:18PM 31.9525 -81.1933 178° South 419 482 34,000  Level Jacksonville Center
07:19PM 31.8525 -81.1903 179° South 414 476 34,000  Level Jacksonville Center
07:20PM 31.7311 -81.1875 179° South 402 463 34,000  Level Jacksonville Center
07:21PM 31.6206 -81.1847 179° South 396 456 34,000  Level Jacksonville Center
07:22PM 31.5222 -81.1792 177° South 404 465 34,000  Level Jacksonville Center
07:23PM 31.3992 -81.1767 179° South 399 459 34,000  Level Jacksonville Center
07:24PM 31.2864 -81.1764 180° South 399 459 34,000  Level Jacksonville Center
07:25PM 31.1736 -81.1711 178° South 406 467 34,000  Level Jacksonville Center
07:26PM 31.0628 -81.1706 180° South 406 467 34,000  Level Jacksonville Center
07:27PM 30.9522 -81.1653 178° South 406 467 34,000  Level Jacksonville Center
07:28PM 30.8414 -81.1600 178° South 406 467 34,000  Level Jacksonville Center
07:29PM 30.7286 -81.1575 179° South 401 461 34,000 -360 Level Jacksonville Center
07:30PM 30.6181 -81.1522 178° South 401 461 33,300 -900 Descending Jacksonville Center
07:31PM 30.5008 -81.1469 178° South 401 461 32,200 -1,200 Descending Jacksonville Center
07:32PM 30.3881 -81.1467 180° South 401 461 30,900 -1,380 Descending Jacksonville Center
07:33PM 30.2711 -81.1417 178° South 411 473 29,500 -1,440 Descending Jacksonville Center
07:34PM 30.1564 -81.1414 180° South 416 479 28,100 -1,440 Descending Jacksonville Center
07:35PM 30.0436 -81.1361 178° South 416 479 26,700 -1,380 Descending Jacksonville Center
07:36PM 29.9328 -81.1333 179° South 411 473 25,400 -1,320 Descending Jacksonville Center
07:37PM 29.8242 -81.1306 179° South 399 459 24,100 -1,320 Descending Jacksonville Center
07:38PM 29.7178 -81.1253 178° South 399 459 22,800 -1,200 Descending Jacksonville Center
07:39PM 29.6239 -81.1222 178° South 388 447 21,700 -1,140 Descending Jacksonville Center
07:40PM 29.5194 -81.1194 179° South 383 441 20,600 -1,560 Descending Jacksonville Center
07:41PM 29.4025 -81.1142 178° South 383 441 18,600 -1,980 Descending Jacksonville Center
07:42PM 29.3022 -81.1114 179° South 377 434 16,700 -1,860 Descending Jacksonville Center
07:43PM 29.1978 -81.1036 176° South 377 434 14,900 -1,800 Descending Jacksonville Center
07:44PM 29.0975 -81.0961 176° South 368 423 13,100 -1,500 Descending Jacksonville Center
07:45PM 29.0075 -81.0881 176° South 333 383 11,900 -1,020 Descending Jacksonville Center
07:46PM 28.9197 -81.0778 174° South 319 367 11,100 -1,260 Descending Jacksonville Center
07:47PM 28.8358 -81.0606 170° South 313 360 9,400 -1,560 Descending Jacksonville Center
07:48PM 28.7717 -81.0806 195° South 258 297 8,000 -1,020 Descending Jacksonville Center
07:49PM 28.7500 -81.1167 236° Southwest 219 252 7,900 -720 Descending Orlando TRACON
07:50PM 28.7333 -81.1667 249° West 183 211 7,000 -1,200 Descending Orlando TRACON
07:51PM 28.7000 -81.2333 240° Southwest 191 220 5,500 -1,200 Descending Orlando TRACON
07:52PM 28.6667 -81.2667 221° Southwest 190 219 4,600 -1,140 Descending Orlando TRACON
07:53PM 28.6333 -81.2833 204° Southwest 180 207 3,500 -900 Descending Orlando TRACON
07:54PM 28.5833 -81.2833 180° South 157 181 2,800 -780 Descending Orlando TRACON
07:55PM 28.5333 -81.2833 180° South 146 168 1,900 -780 Descending Orlando TRACON
07:56PM 28.5000 -81.2833 180° South 128 147 1,300 -660 Descending Orlando TRACON
07:57PM 28.4667 -81.2833 180° South 128 147 600 -720 Descending Orlando TRACON